ADDS METAR Data INFO
IDs: Format: Raw Decoded Include TAF

Data at: 0719 UTC 19 Oct 2017

KHNB 190656Z AUTO 17003KT 10SM CLR 10/07 A3020 RMK AO2 SLP228 T01000072
KHNB 190556Z AUTO 16004KT 10SM CLR 12/07 A3019 RMK AO2 SLP224 T01170072 10156 20117 58001
KHNB 190456Z AUTO 16005KT 10SM CLR 12/08 A3019 RMK AO2 SLP222 T01220078 402110050
KHNB 190356Z AUTO 18004KT 10SM CLR 12/08 A3020 RMK AO2 SLP226 T01220078
KHNB 190256Z AUTO 17005KT 10SM CLR 14/08 A3020 RMK AO2 SLP224 T01390078 53000
KHNB 190156Z AUTO 16005KT 10SM CLR 14/08 A3019 RMK AO2 SLP223 T01440083
KHNB 190056Z AUTO 16004KT 10SM CLR 16/08 A3019 RMK AO2 SLP225 T01560083
KHNB 182356Z AUTO 15004KT 10SM CLR 16/08 A3019 RMK AO2 SLP227 T01560083 10211 20156 55003
KHNB 182256Z AUTO 16004KT 10SM CLR 18/08 A3019 RMK AO2 SLP224 T01830078
KHNB 182156Z AUTO 18009KT 10SM CLR 20/08 A3020 RMK AO2 SLP225 T02000078
KHNB 182056Z AUTO 18011KT 10SM CLR 21/08 A3020 RMK AO2 SLP228 T02110078 56019
KHNB 181956Z AUTO 17010G16KT 10SM CLR 21/08 A3021 RMK AO2 SLP229 T02110078
KHNB 181856Z AUTO 20010KT 150V210 10SM CLR 21/08 A3023 RMK AO2 SLP237 T02060083
KHNB 181756Z AUTO 21013KT 10SM CLR 20/08 A3026 RMK AO2 SLP246 T02000083 10200 20056 58018
KHNB 181656Z AUTO 20012KT 10SM CLR 19/08 A3029 RMK AO2 SLP255 T01890083
KHNB 181556Z AUTO 18007KT 10SM CLR 18/09 A3030 RMK AO2 SLP262 T01780089
KHNB 181456Z AUTO 19008KT 10SM CLR 14/08 A3031 RMK AO2 SLP266 T01440078 51011
KHNB 181256Z AUTO 14004KT 10SM CLR 07/06 A3030 RMK AO2 SLP261 T00720061
KHNB 181156Z AUTO 15004KT 10SM CLR 06/04 A3028 RMK AO2 SLP255 T00560044 10072 20050 53007
KHNB 181056Z AUTO 15003KT 10SM CLR 06/05 A3027 RMK AO2 SLP253 T00610050
KHNB 180956Z AUTO 14004KT 10SM CLR 05/04 A3026 RMK AO2 SLP249 T00500044
KHNB 180856Z AUTO 00000KT 7SM CLR 06/06 A3026 RMK AO2 SLP248 T00560056 56001
KHNB 180756Z AUTO 00000KT 10SM CLR 06/06 A3026 RMK AO2 SLP248 T00610056
KHNB 180656Z AUTO 12003KT 10SM CLR 07/06 A3026 RMK AO2 SLP247 T00720061
KHNB 180556Z AUTO 12004KT 10SM CLR 07/07 A3026 RMK AO2 SLP248 T00720067 10133 20067 57003
KHNB 180456Z AUTO 12004KT 10SM CLR 08/07 A3026 RMK AO2 SLP249 T00780067 401940033
KHNB 180356Z AUTO 00000KT 10SM CLR 08/06 A3027 RMK AO2 SLP251 T00830061
KHNB 180256Z AUTO 13003KT 10SM CLR 08/07 A3027 RMK AO2 SLP252 T00830067 53005
KHNB 180156Z AUTO 13005KT 10SM CLR 10/07 A3026 RMK AO2 SLP250 T01000067
KHNB 180056Z AUTO 13003KT 10SM CLR 11/07 A3026 RMK AO2 SLP249 T01060072
KHNB 172356Z AUTO 14003KT 10SM CLR 12/07 A3025 RMK AO2 SLP247 T01220072 10194 20122 56005
KHNB 172256Z AUTO 18004KT 10SM CLR 16/06 A3026 RMK AO2 SLP248 T01610061
KHNB 172156Z AUTO 16004KT 7SM CLR 18/06 A3026 RMK AO2 SLP247 T01830056
KHNB 172056Z AUTO 19006KT 10SM CLR 17/06 A3027 RMK AO2 SLP251 T01720056 56019
KHNB 171956Z AUTO 18006KT 10SM CLR 18/05 A3028 RMK AO2 SLP255 T01780050